sensor_id;sensor_type;location;lat;lon;timestamp;P1;durP1;ratioP1;P2;durP2;ratioP2
70545;SDS011;58098;51.680;5.134;2023-04-30T00:02:06;18.38;;;10.32;;
70545;SDS011;58098;51.680;5.134;2023-04-30T00:04:32;19.77;;;10.00;;
70545;SDS011;58098;51.680;5.134;2023-04-30T00:06:57;19.73;;;10.70;;
70545;SDS011;58098;51.680;5.134;2023-04-30T00:09:23;20.00;;;10.37;;
70545;SDS011;58098;51.680;5.134;2023-04-30T00:11:48;19.30;;;10.37;;
70545;SDS011;58098;51.680;5.134;2023-04-30T00:14:13;17.23;;;10.13;;
70545;SDS011;58098;51.680;5.134;2023-04-30T00:16:39;17.50;;;10.50;;
70545;SDS011;58098;51.680;5.134;2023-04-30T00:19:04;20.97;;;10.90;;
70545;SDS011;58098;51.680;5.134;2023-04-30T00:21:29;18.97;;;11.50;;
70545;SDS011;58098;51.680;5.134;2023-04-30T00:23:55;20.53;;;11.20;;
70545;SDS011;58098;51.680;5.134;2023-04-30T00:26:20;21.00;;;11.10;;
70545;SDS011;58098;51.680;5.134;2023-04-30T00:28:45;20.63;;;11.40;;
70545;SDS011;58098;51.680;5.134;2023-04-30T00:31:11;17.90;;;10.53;;
70545;SDS011;58098;51.680;5.134;2023-04-30T00:33:36;22.33;;;11.07;;
70545;SDS011;58098;51.680;5.134;2023-04-30T00:36:01;24.97;;;10.60;;
70545;SDS011;58098;51.680;5.134;2023-04-30T00:38:27;22.80;;;11.70;;
70545;SDS011;58098;51.680;5.134;2023-04-30T00:40:52;24.03;;;11.13;;
70545;SDS011;58098;51.680;5.134;2023-04-30T00:43:18;19.80;;;11.03;;
70545;SDS011;58098;51.680;5.134;2023-04-30T00:45:43;21.47;;;11.30;;
70545;SDS011;58098;51.680;5.134;2023-04-30T00:48:08;21.10;;;11.10;;
70545;SDS011;58098;51.680;5.134;2023-04-30T00:50:35;21.67;;;11.47;;
70545;SDS011;58098;51.680;5.134;2023-04-30T00:53:00;19.60;;;11.90;;
70545;SDS011;58098;51.680;5.134;2023-04-30T00:55:26;22.05;;;11.73;;
70545;SDS011;58098;51.680;5.134;2023-04-30T00:57:51;20.83;;;12.10;;
70545;SDS011;58098;51.680;5.134;2023-04-30T01:00:17;21.50;;;11.37;;
70545;SDS011;58098;51.680;5.134;2023-04-30T01:02:43;21.70;;;11.27;;
70545;SDS011;58098;51.680;5.134;2023-04-30T01:05:08;20.07;;;10.90;;
70545;SDS011;58098;51.680;5.134;2023-04-30T01:07:34;24.97;;;11.83;;
70545;SDS011;58098;51.680;5.134;2023-04-30T01:10:02;24.20;;;11.95;;
70545;SDS011;58098;51.680;5.134;2023-04-30T01:15:35;20.60;;;11.43;;
70545;SDS011;58098;51.680;5.134;2023-04-30T01:18:16;20.43;;;11.43;;
70545;SDS011;58098;51.680;5.134;2023-04-30T01:20:54;22.42;;;12.30;;
70545;SDS011;58098;51.680;5.134;2023-04-30T01:23:31;19.70;;;12.25;;
70545;SDS011;58098;51.680;5.134;2023-04-30T01:26:28;23.75;;;11.93;;
70545;SDS011;58098;51.680;5.134;2023-04-30T01:29:07;21.40;;;12.25;;
70545;SDS011;58098;51.680;5.134;2023-04-30T01:31:36;21.20;;;11.90;;
70545;SDS011;58098;51.680;5.134;2023-04-30T01:34:01;20.90;;;11.57;;
70545;SDS011;58098;51.680;5.134;2023-04-30T01:36:39;24.50;;;12.47;;
70545;SDS011;58098;51.680;5.134;2023-04-30T01:39:19;26.57;;;12.13;;
70545;SDS011;58098;51.680;5.134;2023-04-30T01:41:53;20.00;;;11.65;;
70545;SDS011;58098;51.680;5.134;2023-04-30T01:47:09;22.17;;;11.50;;
70545;SDS011;58098;51.680;5.134;2023-04-30T01:49:49;22.83;;;11.65;;
70545;SDS011;58098;51.680;5.134;2023-04-30T01:52:26;22.63;;;11.43;;
70545;SDS011;58098;51.680;5.134;2023-04-30T01:55:00;23.20;;;11.32;;
70545;SDS011;58098;51.680;5.134;2023-04-30T01:57:32;23.10;;;12.10;;
70545;SDS011;58098;51.680;5.134;2023-04-30T02:00:01;20.00;;;10.95;;
70545;SDS011;58098;51.680;5.134;2023-04-30T02:02:28;20.67;;;12.07;;
70545;SDS011;58098;51.680;5.134;2023-04-30T02:04:53;23.00;;;11.43;;
70545;SDS011;58098;51.680;5.134;2023-04-30T02:07:35;23.33;;;12.20;;
70545;SDS011;58098;51.680;5.134;2023-04-30T02:10:09;20.30;;;11.65;;
70545;SDS011;58098;51.680;5.134;2023-04-30T02:12:36;21.38;;;11.52;;
70545;SDS011;58098;51.680;5.134;2023-04-30T02:15:02;18.70;;;11.03;;
70545;SDS011;58098;51.680;5.134;2023-04-30T02:17:28;24.83;;;11.30;;
70545;SDS011;58098;51.680;5.134;2023-04-30T02:19:53;18.87;;;11.03;;
70545;SDS011;58098;51.680;5.134;2023-04-30T02:22:18;18.73;;;10.90;;
70545;SDS011;58098;51.680;5.134;2023-04-30T02:24:44;21.03;;;11.50;;
70545;SDS011;58098;51.680;5.134;2023-04-30T02:27:09;19.13;;;11.23;;
70545;SDS011;58098;51.680;5.134;2023-04-30T02:29:34;22.10;;;11.90;;
70545;SDS011;58098;51.680;5.134;2023-04-30T02:32:00;25.17;;;11.53;;
70545;SDS011;58098;51.680;5.134;2023-04-30T02:34:25;19.53;;;11.20;;
70545;SDS011;58098;51.680;5.134;2023-04-30T02:36:51;21.40;;;12.23;;
70545;SDS011;58098;51.680;5.134;2023-04-30T02:39:16;19.93;;;11.30;;
70545;SDS011;58098;51.680;5.134;2023-04-30T02:41:41;22.70;;;11.30;;
70545;SDS011;58098;51.680;5.134;2023-04-30T02:44:10;25.73;;;12.05;;
70545;SDS011;58098;51.680;5.134;2023-04-30T02:46:36;20.73;;;10.30;;
70545;SDS011;58098;51.680;5.134;2023-04-30T02:49:01;18.73;;;10.65;;
70545;SDS011;58098;51.680;5.134;2023-04-30T02:51:27;19.80;;;11.37;;
70545;SDS011;58098;51.680;5.134;2023-04-30T02:53:52;23.67;;;11.63;;
70545;SDS011;58098;51.680;5.134;2023-04-30T02:56:17;23.73;;;12.23;;
70545;SDS011;58098;51.680;5.134;2023-04-30T02:58:43;21.37;;;10.90;;
70545;SDS011;58098;51.680;5.134;2023-04-30T03:01:08;21.93;;;12.07;;
70545;SDS011;58098;51.680;5.134;2023-04-30T03:03:33;18.48;;;11.60;;
70545;SDS011;58098;51.680;5.134;2023-04-30T03:05:59;20.00;;;12.50;;
70545;SDS011;58098;51.680;5.134;2023-04-30T03:08:24;20.87;;;11.33;;
70545;SDS011;58098;51.680;5.134;2023-04-30T03:10:50;20.88;;;11.63;;
70545;SDS011;58098;51.680;5.134;2023-04-30T03:13:16;21.03;;;12.00;;
70545;SDS011;58098;51.680;5.134;2023-04-30T03:15:42;19.67;;;11.98;;
70545;SDS011;58098;51.680;5.134;2023-04-30T03:18:08;23.47;;;11.57;;
70545;SDS011;58098;51.680;5.134;2023-04-30T03:20:34;23.15;;;11.77;;
70545;SDS011;58098;51.680;5.134;2023-04-30T03:22:59;24.07;;;12.50;;
70545;SDS011;58098;51.680;5.134;2023-04-30T03:25:24;22.67;;;11.67;;
70545;SDS011;58098;51.680;5.134;2023-04-30T03:27:50;23.53;;;12.70;;
70545;SDS011;58098;51.680;5.134;2023-04-30T03:30:15;20.00;;;12.07;;
70545;SDS011;58098;51.680;5.134;2023-04-30T03:32:40;21.67;;;11.90;;
70545;SDS011;58098;51.680;5.134;2023-04-30T03:35:06;22.20;;;12.97;;
70545;SDS011;58098;51.680;5.134;2023-04-30T03:37:32;22.50;;;12.27;;
70545;SDS011;58098;51.680;5.134;2023-04-30T03:39:57;20.83;;;12.10;;
70545;SDS011;58098;51.680;5.134;2023-04-30T03:42:22;23.07;;;12.57;;
70545;SDS011;58098;51.680;5.134;2023-04-30T03:44:48;22.00;;;12.77;;
70545;SDS011;58098;51.680;5.134;2023-04-30T03:47:13;22.63;;;12.33;;
70545;SDS011;58098;51.680;5.134;2023-04-30T03:49:39;21.97;;;12.37;;
70545;SDS011;58098;51.680;5.134;2023-04-30T03:52:04;19.87;;;12.43;;
70545;SDS011;58098;51.680;5.134;2023-04-30T03:54:30;22.75;;;12.70;;
70545;SDS011;58098;51.680;5.134;2023-04-30T03:56:57;24.75;;;13.25;;
70545;SDS011;58098;51.680;5.134;2023-04-30T03:59:23;26.23;;;12.93;;
70545;SDS011;58098;51.680;5.134;2023-04-30T04:01:48;23.07;;;13.43;;
70545;SDS011;58098;51.680;5.134;2023-04-30T04:04:14;24.60;;;13.37;;
70545;SDS011;58098;51.680;5.134;2023-04-30T04:06:39;23.13;;;13.33;;
70545;SDS011;58098;51.680;5.134;2023-04-30T04:09:05;21.70;;;13.40;;
70545;SDS011;58098;51.680;5.134;2023-04-30T04:11:30;26.48;;;13.60;;
70545;SDS011;58098;51.680;5.134;2023-04-30T04:13:55;28.13;;;14.17;;
70545;SDS011;58098;51.680;5.134;2023-04-30T04:16:21;24.37;;;13.17;;
70545;SDS011;58098;51.680;5.134;2023-04-30T04:18:46;22.53;;;13.33;;
70545;SDS011;58098;51.680;5.134;2023-04-30T04:21:11;23.67;;;13.43;;
70545;SDS011;58098;51.680;5.134;2023-04-30T04:23:37;23.90;;;13.43;;
70545;SDS011;58098;51.680;5.134;2023-04-30T04:26:02;21.20;;;13.13;;
70545;SDS011;58098;51.680;5.134;2023-04-30T04:28:27;23.47;;;13.83;;
70545;SDS011;58098;51.680;5.134;2023-04-30T04:30:53;26.48;;;13.52;;
70545;SDS011;58098;51.680;5.134;2023-04-30T04:33:18;26.67;;;13.43;;
70545;SDS011;58098;51.680;5.134;2023-04-30T04:35:43;23.47;;;13.00;;
70545;SDS011;58098;51.680;5.134;2023-04-30T04:38:08;23.80;;;12.73;;
70545;SDS011;58098;51.680;5.134;2023-04-30T04:40:34;21.33;;;13.10;;
70545;SDS011;58098;51.680;5.134;2023-04-30T04:42:59;21.93;;;13.10;;
70545;SDS011;58098;51.680;5.134;2023-04-30T04:45:25;24.10;;;13.07;;
70545;SDS011;58098;51.680;5.134;2023-04-30T04:47:50;20.27;;;12.27;;
70545;SDS011;58098;51.680;5.134;2023-04-30T04:50:16;25.00;;;13.47;;
70545;SDS011;58098;51.680;5.134;2023-04-30T04:52:42;23.15;;;13.77;;
70545;SDS011;58098;51.680;5.134;2023-04-30T04:55:07;23.10;;;13.23;;
70545;SDS011;58098;51.680;5.134;2023-04-30T04:57:33;26.23;;;13.02;;
70545;SDS011;58098;51.680;5.134;2023-04-30T04:59:59;22.83;;;13.47;;
70545;SDS011;58098;51.680;5.134;2023-04-30T05:02:24;27.93;;;14.33;;
70545;SDS011;58098;51.680;5.134;2023-04-30T05:04:49;23.87;;;14.17;;
70545;SDS011;58098;51.680;5.134;2023-04-30T05:07:16;22.98;;;14.18;;
70545;SDS011;58098;51.680;5.134;2023-04-30T05:09:42;27.05;;;14.85;;
70545;SDS011;58098;51.680;5.134;2023-04-30T05:12:08;25.85;;;14.70;;
70545;SDS011;58098;51.680;5.134;2023-04-30T05:14:33;25.33;;;13.77;;
70545;SDS011;58098;51.680;5.134;2023-04-30T05:16:58;29.77;;;14.93;;
70545;SDS011;58098;51.680;5.134;2023-04-30T05:19:24;25.07;;;15.10;;
70545;SDS011;58098;51.680;5.134;2023-04-30T05:21:49;28.03;;;14.90;;
70545;SDS011;58098;51.680;5.134;2023-04-30T05:24:15;26.45;;;14.05;;
70545;SDS011;58098;51.680;5.134;2023-04-30T05:26:40;27.13;;;15.50;;
70545;SDS011;58098;51.680;5.134;2023-04-30T05:29:06;24.73;;;15.17;;
70545;SDS011;58098;51.680;5.134;2023-04-30T05:31:31;24.40;;;14.60;;
70545;SDS011;58098;51.680;5.134;2023-04-30T05:33:56;30.13;;;16.30;;
70545;SDS011;58098;51.680;5.134;2023-04-30T05:36:22;27.17;;;15.17;;
70545;SDS011;58098;51.680;5.134;2023-04-30T05:38:47;28.57;;;15.20;;
70545;SDS011;58098;51.680;5.134;2023-04-30T05:41:12;24.37;;;14.93;;
70545;SDS011;58098;51.680;5.134;2023-04-30T05:43:37;26.33;;;14.40;;
70545;SDS011;58098;51.680;5.134;2023-04-30T05:46:03;26.77;;;13.93;;
70545;SDS011;58098;51.680;5.134;2023-04-30T05:48:29;25.33;;;14.60;;
70545;SDS011;58098;51.680;5.134;2023-04-30T05:50:54;21.48;;;13.80;;
70545;SDS011;58098;51.680;5.134;2023-04-30T05:53:20;22.10;;;13.67;;
70545;SDS011;58098;51.680;5.134;2023-04-30T05:55:45;24.33;;;14.13;;
70545;SDS011;58098;51.680;5.134;2023-04-30T05:58:10;25.00;;;14.40;;
70545;SDS011;58098;51.680;5.134;2023-04-30T06:00:36;23.60;;;13.17;;
70545;SDS011;58098;51.680;5.134;2023-04-30T06:03:01;22.42;;;13.57;;
70545;SDS011;58098;51.680;5.134;2023-04-30T06:05:27;22.57;;;13.83;;
70545;SDS011;58098;51.680;5.134;2023-04-30T06:07:52;22.00;;;13.73;;
70545;SDS011;58098;51.680;5.134;2023-04-30T06:10:17;22.50;;;13.43;;
70545;SDS011;58098;51.680;5.134;2023-04-30T06:12:42;24.70;;;13.90;;
70545;SDS011;58098;51.680;5.134;2023-04-30T06:15:08;21.03;;;13.23;;
70545;SDS011;58098;51.680;5.134;2023-04-30T06:17:33;21.88;;;12.98;;
70545;SDS011;58098;51.680;5.134;2023-04-30T06:19:59;21.20;;;12.50;;
70545;SDS011;58098;51.680;5.134;2023-04-30T06:22:26;16.80;;;11.90;;
70545;SDS011;58098;51.680;5.134;2023-04-30T06:24:53;23.05;;;13.57;;
70545;SDS011;58098;51.680;5.134;2023-04-30T06:27:18;19.87;;;12.47;;
70545;SDS011;58098;51.680;5.134;2023-04-30T06:29:43;19.30;;;11.60;;
70545;SDS011;58098;51.680;5.134;2023-04-30T06:32:08;16.87;;;11.93;;
70545;SDS011;58098;51.680;5.134;2023-04-30T06:34:34;18.07;;;12.33;;
70545;SDS011;58098;51.680;5.134;2023-04-30T06:37:00;19.35;;;11.65;;
70545;SDS011;58098;51.680;5.134;2023-04-30T06:39:26;17.90;;;11.13;;
70545;SDS011;58098;51.680;5.134;2023-04-30T06:41:51;15.93;;;10.77;;
70545;SDS011;58098;51.680;5.134;2023-04-30T06:44:16;18.17;;;11.10;;
70545;SDS011;58098;51.680;5.134;2023-04-30T06:46:43;18.13;;;11.30;;
70545;SDS011;58098;51.680;5.134;2023-04-30T06:49:08;16.10;;;11.13;;
70545;SDS011;58098;51.680;5.134;2023-04-30T06:51:33;16.20;;;10.97;;
70545;SDS011;58098;51.680;5.134;2023-04-30T06:53:58;16.97;;;11.67;;
70545;SDS011;58098;51.680;5.134;2023-04-30T06:56:24;18.38;;;11.13;;
70545;SDS011;58098;51.680;5.134;2023-04-30T06:58:49;17.37;;;11.37;;
70545;SDS011;58098;51.680;5.134;2023-04-30T07:01:15;18.57;;;10.83;;
70545;SDS011;58098;51.680;5.134;2023-04-30T07:03:41;16.42;;;11.63;;
70545;SDS011;58098;51.680;5.134;2023-04-30T07:06:06;16.73;;;11.33;;
70545;SDS011;58098;51.680;5.134;2023-04-30T07:08:31;19.10;;;11.07;;
70545;SDS011;58098;51.680;5.134;2023-04-30T07:10:57;19.77;;;11.63;;
70545;SDS011;58098;51.680;5.134;2023-04-30T07:13:22;17.33;;;11.30;;
70545;SDS011;58098;51.680;5.134;2023-04-30T07:15:47;19.37;;;11.63;;
70545;SDS011;58098;51.680;5.134;2023-04-30T07:18:13;20.23;;;11.80;;
70545;SDS011;58098;51.680;5.134;2023-04-30T07:20:38;20.33;;;11.83;;
70545;SDS011;58098;51.680;5.134;2023-04-30T07:23:03;18.90;;;11.50;;
70545;SDS011;58098;51.680;5.134;2023-04-30T07:25:29;19.93;;;11.70;;
70545;SDS011;58098;51.680;5.134;2023-04-30T07:27:54;18.17;;;12.47;;
70545;SDS011;58098;51.680;5.134;2023-04-30T07:30:19;18.83;;;11.77;;
70545;SDS011;58098;51.680;5.134;2023-04-30T07:32:45;21.92;;;12.88;;
70545;SDS011;58098;51.680;5.134;2023-04-30T07:35:11;17.55;;;11.98;;
70545;SDS011;58098;51.680;5.134;2023-04-30T07:37:37;19.15;;;12.38;;
70545;SDS011;58098;51.680;5.134;2023-04-30T07:40:03;22.70;;;13.20;;
70545;SDS011;58098;51.680;5.134;2023-04-30T07:42:28;17.23;;;11.40;;
70545;SDS011;58098;51.680;5.134;2023-04-30T07:44:54;17.70;;;12.27;;
70545;SDS011;58098;51.680;5.134;2023-04-30T07:47:19;16.83;;;11.07;;
70545;SDS011;58098;51.680;5.134;2023-04-30T07:49:45;16.92;;;11.20;;
70545;SDS011;58098;51.680;5.134;2023-04-30T07:52:11;16.80;;;11.43;;
70545;SDS011;58098;51.680;5.134;2023-04-30T07:54:37;17.17;;;10.52;;
70545;SDS011;58098;51.680;5.134;2023-04-30T07:57:04;20.30;;;11.93;;
70545;SDS011;58098;51.680;5.134;2023-04-30T07:59:29;19.00;;;12.00;;
70545;SDS011;58098;51.680;5.134;2023-04-30T08:01:55;21.73;;;11.43;;
70545;SDS011;58098;51.680;5.134;2023-04-30T08:04:20;13.97;;;9.67;;
70545;SDS011;58098;51.680;5.134;2023-04-30T08:06:46;15.30;;;10.30;;
70545;SDS011;58098;51.680;5.134;2023-04-30T08:09:11;16.40;;;10.70;;
70545;SDS011;58098;51.680;5.134;2023-04-30T08:11:36;16.70;;;10.10;;
70545;SDS011;58098;51.680;5.134;2023-04-30T08:14:02;13.65;;;9.90;;
70545;SDS011;58098;51.680;5.134;2023-04-30T08:16:27;14.97;;;10.20;;
70545;SDS011;58098;51.680;5.134;2023-04-30T08:18:52;13.63;;;9.70;;
70545;SDS011;58098;51.680;5.134;2023-04-30T08:21:18;15.23;;;9.20;;
70545;SDS011;58098;51.680;5.134;2023-04-30T08:23:43;14.57;;;10.07;;
70545;SDS011;58098;51.680;5.134;2023-04-30T08:26:09;15.33;;;10.53;;
70545;SDS011;58098;51.680;5.134;2023-04-30T08:28:35;16.93;;;10.30;;
70545;SDS011;58098;51.680;5.134;2023-04-30T08:31:00;13.57;;;10.15;;
70545;SDS011;58098;51.680;5.134;2023-04-30T08:33:25;12.43;;;9.60;;
70545;SDS011;58098;51.680;5.134;2023-04-30T08:35:51;12.47;;;9.33;;
70545;SDS011;58098;51.680;5.134;2023-04-30T08:38:16;11.23;;;8.70;;
70545;SDS011;58098;51.680;5.134;2023-04-30T08:40:42;15.70;;;10.23;;
70545;SDS011;58098;51.680;5.134;2023-04-30T08:43:20;10.70;;;8.67;;
70545;SDS011;58098;51.680;5.134;2023-04-30T08:45:46;13.48;;;9.07;;
70545;SDS011;58098;51.680;5.134;2023-04-30T08:48:13;12.65;;;8.63;;
70545;SDS011;58098;51.680;5.134;2023-04-30T08:50:40;13.00;;;8.90;;
70545;SDS011;58098;51.680;5.134;2023-04-30T08:53:06;11.87;;;8.90;;
70545;SDS011;58098;51.680;5.134;2023-04-30T08:55:32;12.05;;;8.93;;
70545;SDS011;58098;51.680;5.134;2023-04-30T08:57:58;13.88;;;9.10;;
70545;SDS011;58098;51.680;5.134;2023-04-30T09:00:23;11.87;;;8.83;;
70545;SDS011;58098;51.680;5.134;2023-04-30T09:02:50;14.23;;;9.30;;
70545;SDS011;58098;51.680;5.134;2023-04-30T09:05:16;15.30;;;9.63;;
70545;SDS011;58098;51.680;5.134;2023-04-30T09:07:42;14.23;;;9.33;;
70545;SDS011;58098;51.680;5.134;2023-04-30T09:10:18;10.10;;;7.82;;
70545;SDS011;58098;51.680;5.134;2023-04-30T09:12:58;13.18;;;9.02;;
70545;SDS011;58098;51.680;5.134;2023-04-30T09:15:24;13.60;;;9.63;;
70545;SDS011;58098;51.680;5.134;2023-04-30T09:17:50;16.27;;;9.10;;
70545;SDS011;58098;51.680;5.134;2023-04-30T09:20:15;11.10;;;8.80;;
70545;SDS011;58098;51.680;5.134;2023-04-30T09:22:42;11.50;;;8.05;;
70545;SDS011;58098;51.680;5.134;2023-04-30T09:25:08;12.63;;;9.20;;
70545;SDS011;58098;51.680;5.134;2023-04-30T09:27:34;12.13;;;8.70;;
70545;SDS011;58098;51.680;5.134;2023-04-30T09:29:59;11.80;;;8.20;;
70545;SDS011;58098;51.680;5.134;2023-04-30T09:32:25;12.40;;;8.90;;
70545;SDS011;58098;51.680;5.134;2023-04-30T09:34:50;12.53;;;8.63;;
70545;SDS011;58098;51.680;5.134;2023-04-30T09:37:16;11.80;;;8.87;;
70545;SDS011;58098;51.680;5.134;2023-04-30T09:39:52;10.57;;;8.87;;
70545;SDS011;58098;51.680;5.134;2023-04-30T09:42:18;11.50;;;8.40;;
70545;SDS011;58098;51.680;5.134;2023-04-30T09:44:44;12.60;;;9.02;;
70545;SDS011;58098;51.680;5.134;2023-04-30T09:47:14;11.30;;;8.13;;
70545;SDS011;58098;51.680;5.134;2023-04-30T09:49:41;11.32;;;8.90;;
70545;SDS011;58098;51.680;5.134;2023-04-30T09:52:15;13.17;;;8.77;;
70545;SDS011;58098;51.680;5.134;2023-04-30T09:54:41;10.90;;;8.10;;
70545;SDS011;58098;51.680;5.134;2023-04-30T09:57:09;10.17;;;7.93;;
70545;SDS011;58098;51.680;5.134;2023-04-30T09:59:36;11.18;;;7.90;;
70545;SDS011;58098;51.680;5.134;2023-04-30T10:02:05;9.48;;;7.57;;
70545;SDS011;58098;51.680;5.134;2023-04-30T10:04:34;8.63;;;6.38;;
70545;SDS011;58098;51.680;5.134;2023-04-30T10:07:03;8.48;;;7.07;;
70545;SDS011;58098;51.680;5.134;2023-04-30T10:09:49;9.83;;;6.30;;
70545;SDS011;58098;51.680;5.134;2023-04-30T10:12:20;10.23;;;6.72;;
70545;SDS011;58098;51.680;5.134;2023-04-30T10:14:54;10.90;;;7.40;;
70545;SDS011;58098;51.680;5.134;2023-04-30T10:17:25;8.88;;;6.55;;
70545;SDS011;58098;51.680;5.134;2023-04-30T10:19:56;11.32;;;7.40;;
70545;SDS011;58098;51.680;5.134;2023-04-30T10:22:29;9.13;;;7.23;;
70545;SDS011;58098;51.680;5.134;2023-04-30T10:24:55;7.63;;;6.60;;
70545;SDS011;58098;51.680;5.134;2023-04-30T10:27:21;8.60;;;7.10;;
70545;SDS011;58098;51.680;5.134;2023-04-30T10:29:46;9.30;;;7.03;;
70545;SDS011;58098;51.680;5.134;2023-04-30T10:32:12;11.35;;;7.75;;
70545;SDS011;58098;51.680;5.134;2023-04-30T10:37:35;11.27;;;7.93;;
70545;SDS011;58098;51.680;5.134;2023-04-30T10:40:02;9.45;;;7.20;;
70545;SDS011;58098;51.680;5.134;2023-04-30T10:42:29;12.13;;;8.18;;
70545;SDS011;58098;51.680;5.134;2023-04-30T10:44:54;11.73;;;7.97;;
70545;SDS011;58098;51.680;5.134;2023-04-30T10:47:26;8.35;;;7.13;;
70545;SDS011;58098;51.680;5.134;2023-04-30T10:50:00;8.88;;;7.35;;
70545;SDS011;58098;51.680;5.134;2023-04-30T10:52:27;11.68;;;8.20;;
70545;SDS011;58098;51.680;5.134;2023-04-30T10:54:53;7.93;;;6.53;;
70545;SDS011;58098;51.680;5.134;2023-04-30T10:57:18;10.88;;;7.32;;
70545;SDS011;58098;51.680;5.134;2023-04-30T11:02:18;9.60;;;7.32;;
70545;SDS011;58098;51.680;5.134;2023-04-30T11:07:31;9.07;;;6.68;;
70545;SDS011;58098;51.680;5.134;2023-04-30T11:09:56;9.32;;;7.70;;
70545;SDS011;58098;51.680;5.134;2023-04-30T11:12:24;10.97;;;8.13;;
70545;SDS011;58098;51.680;5.134;2023-04-30T11:15:00;9.10;;;6.97;;
70545;SDS011;58098;51.680;5.134;2023-04-30T11:17:41;9.10;;;6.43;;
70545;SDS011;58098;51.680;5.134;2023-04-30T11:20:11;8.43;;;5.57;;
70545;SDS011;58098;51.680;5.134;2023-04-30T11:22:37;7.15;;;5.60;;
70545;SDS011;58098;51.680;5.134;2023-04-30T11:27:37;6.95;;;6.03;;
70545;SDS011;58098;51.680;5.134;2023-04-30T11:30:13;8.82;;;6.88;;
70545;SDS011;58098;51.680;5.134;2023-04-30T11:32:41;8.68;;;7.38;;
70545;SDS011;58098;51.680;5.134;2023-04-30T11:35:10;8.90;;;7.53;;
70545;SDS011;58098;51.680;5.134;2023-04-30T11:37:36;8.88;;;7.55;;
70545;SDS011;58098;51.680;5.134;2023-04-30T11:40:04;7.03;;;6.15;;
70545;SDS011;58098;51.680;5.134;2023-04-30T11:42:35;8.30;;;6.00;;
70545;SDS011;58098;51.680;5.134;2023-04-30T11:45:06;9.02;;;6.72;;
70545;SDS011;58098;51.680;5.134;2023-04-30T11:47:49;8.45;;;6.25;;
70545;SDS011;58098;51.680;5.134;2023-04-30T11:50:16;7.78;;;6.60;;
70545;SDS011;58098;51.680;5.134;2023-04-30T11:52:50;8.55;;;7.28;;
70545;SDS011;58098;51.680;5.134;2023-04-30T11:55:18;9.03;;;7.27;;
70545;SDS011;58098;51.680;5.134;2023-04-30T11:57:46;7.93;;;6.88;;
70545;SDS011;58098;51.680;5.134;2023-04-30T12:02:41;10.23;;;7.22;;
70545;SDS011;58098;51.680;5.134;2023-04-30T12:05:17;7.47;;;6.57;;
70545;SDS011;58098;51.680;5.134;2023-04-30T12:07:55;8.03;;;6.10;;
70545;SDS011;58098;51.680;5.134;2023-04-30T12:10:22;5.97;;;4.50;;
70545;SDS011;58098;51.680;5.134;2023-04-30T12:12:49;5.20;;;4.70;;
70545;SDS011;58098;51.680;5.134;2023-04-30T12:15:18;5.88;;;5.32;;
70545;SDS011;58098;51.680;5.134;2023-04-30T12:17:51;6.38;;;4.68;;
70545;SDS011;58098;51.680;5.134;2023-04-30T12:20:18;7.13;;;5.73;;
70545;SDS011;58098;51.680;5.134;2023-04-30T12:22:46;7.30;;;6.38;;
70545;SDS011;58098;51.680;5.134;2023-04-30T12:25:12;8.93;;;7.82;;
70545;SDS011;58098;51.680;5.134;2023-04-30T12:27:40;8.40;;;6.45;;
70545;SDS011;58098;51.680;5.134;2023-04-30T12:30:06;5.07;;;4.00;;
70545;SDS011;58098;51.680;5.134;2023-04-30T12:32:37;4.67;;;4.27;;
70545;SDS011;58098;51.680;5.134;2023-04-30T12:35:15;4.88;;;4.03;;
70545;SDS011;58098;51.680;5.134;2023-04-30T12:37:45;6.72;;;5.47;;
70545;SDS011;58098;51.680;5.134;2023-04-30T12:40:12;9.18;;;6.55;;
70545;SDS011;58098;51.680;5.134;2023-04-30T12:42:40;8.40;;;6.95;;
70545;SDS011;58098;51.680;5.134;2023-04-30T12:45:09;8.20;;;5.80;;
70545;SDS011;58098;51.680;5.134;2023-04-30T12:47:39;9.93;;;6.40;;
70545;SDS011;58098;51.680;5.134;2023-04-30T12:50:07;8.00;;;5.93;;
70545;SDS011;58098;51.680;5.134;2023-04-30T12:52:36;8.38;;;5.70;;
70545;SDS011;58098;51.680;5.134;2023-04-30T12:55:18;8.63;;;5.82;;
70545;SDS011;58098;51.680;5.134;2023-04-30T13:00:45;6.65;;;5.40;;
70545;SDS011;58098;51.680;5.134;2023-04-30T13:03:18;8.80;;;5.72;;
70545;SDS011;58098;51.680;5.134;2023-04-30T13:05:45;8.82;;;6.10;;
70545;SDS011;58098;51.680;5.134;2023-04-30T13:08:15;6.93;;;6.22;;
70545;SDS011;58098;51.680;5.134;2023-04-30T13:10:42;7.53;;;5.10;;
70545;SDS011;58098;51.680;5.134;2023-04-30T13:13:07;4.85;;;4.25;;
70545;SDS011;58098;51.680;5.134;2023-04-30T13:15:33;5.50;;;4.63;;
70545;SDS011;58098;51.680;5.134;2023-04-30T13:17:58;5.85;;;4.97;;
70545;SDS011;58098;51.680;5.134;2023-04-30T13:20:24;5.63;;;4.70;;
70545;SDS011;58098;51.680;5.134;2023-04-30T13:22:50;6.00;;;4.83;;
70545;SDS011;58098;51.680;5.134;2023-04-30T13:25:15;7.50;;;5.25;;
70545;SDS011;58098;51.680;5.134;2023-04-30T13:27:41;7.10;;;4.67;;
70545;SDS011;58098;51.680;5.134;2023-04-30T13:30:08;5.82;;;4.78;;
70545;SDS011;58098;51.680;5.134;2023-04-30T13:32:34;6.55;;;4.63;;
70545;SDS011;58098;51.680;5.134;2023-04-30T13:35:00;5.83;;;4.77;;
70545;SDS011;58098;51.680;5.134;2023-04-30T13:37:26;5.30;;;4.22;;
70545;SDS011;58098;51.680;5.134;2023-04-30T13:39:51;5.23;;;4.60;;
70545;SDS011;58098;51.680;5.134;2023-04-30T13:42:16;4.70;;;4.23;;
70545;SDS011;58098;51.680;5.134;2023-04-30T13:44:42;4.83;;;4.00;;
70545;SDS011;58098;51.680;5.134;2023-04-30T13:47:09;6.47;;;4.20;;
70545;SDS011;58098;51.680;5.134;2023-04-30T13:49:35;4.65;;;4.10;;
70545;SDS011;58098;51.680;5.134;2023-04-30T13:52:02;4.70;;;4.20;;
70545;SDS011;58098;51.680;5.134;2023-04-30T13:54:27;5.53;;;4.18;;
70545;SDS011;58098;51.680;5.134;2023-04-30T13:56:53;4.50;;;3.67;;
70545;SDS011;58098;51.680;5.134;2023-04-30T13:59:19;5.07;;;4.00;;
70545;SDS011;58098;51.680;5.134;2023-04-30T14:01:44;4.93;;;4.00;;
70545;SDS011;58098;51.680;5.134;2023-04-30T14:04:10;5.10;;;3.80;;
70545;SDS011;58098;51.680;5.134;2023-04-30T14:06:35;5.25;;;3.65;;
70545;SDS011;58098;51.680;5.134;2023-04-30T14:09:02;4.90;;;3.17;;
70545;SDS011;58098;51.680;5.134;2023-04-30T14:11:27;4.07;;;3.57;;
70545;SDS011;58098;51.680;5.134;2023-04-30T14:13:53;3.73;;;3.30;;
70545;SDS011;58098;51.680;5.134;2023-04-30T14:16:19;4.90;;;3.47;;
70545;SDS011;58098;51.680;5.134;2023-04-30T14:18:44;5.13;;;3.63;;
70545;SDS011;58098;51.680;5.134;2023-04-30T14:21:10;5.87;;;3.67;;
70545;SDS011;58098;51.680;5.134;2023-04-30T14:23:35;5.27;;;3.43;;
70545;SDS011;58098;51.680;5.134;2023-04-30T14:26:02;4.30;;;3.22;;
70545;SDS011;58098;51.680;5.134;2023-04-30T14:28:28;4.05;;;3.22;;
70545;SDS011;58098;51.680;5.134;2023-04-30T14:30:53;4.73;;;3.20;;
70545;SDS011;58098;51.680;5.134;2023-04-30T14:33:19;3.97;;;3.47;;
70545;SDS011;58098;51.680;5.134;2023-04-30T14:35:44;3.63;;;3.20;;
70545;SDS011;58098;51.680;5.134;2023-04-30T14:38:10;4.00;;;3.20;;
70545;SDS011;58098;51.680;5.134;2023-04-30T14:40:35;3.80;;;3.40;;
70545;SDS011;58098;51.680;5.134;2023-04-30T14:43:01;4.40;;;2.93;;
70545;SDS011;58098;51.680;5.134;2023-04-30T14:45:26;4.43;;;3.00;;
70545;SDS011;58098;51.680;5.134;2023-04-30T14:47:53;4.53;;;3.43;;
70545;SDS011;58098;51.680;5.134;2023-04-30T14:50:18;3.77;;;3.37;;
70545;SDS011;58098;51.680;5.134;2023-04-30T14:52:43;3.55;;;3.25;;